sensor_id;sensor_type;location;lat;lon;timestamp;P1;durP1;ratioP1;P2;durP2;ratioP2
43744;SDS011;29359;53.048;8.732;2022-10-22T00:01:50;11.35;;;3.72;;
43744;SDS011;29359;53.048;8.732;2022-10-22T00:03:52;12.73;;;3.75;;
43744;SDS011;29359;53.048;8.732;2022-10-22T00:05:53;13.82;;;3.47;;
43744;SDS011;29359;53.048;8.732;2022-10-22T00:07:54;30.85;;;4.22;;
43744;SDS011;29359;53.048;8.732;2022-10-22T00:09:56;13.32;;;4.72;;
43744;SDS011;29359;53.048;8.732;2022-10-22T00:11:57;27.13;;;3.50;;
43744;SDS011;29359;53.048;8.732;2022-10-22T00:13:59;25.35;;;4.03;;
43744;SDS011;29359;53.048;8.732;2022-10-22T00:16:00;20.73;;;3.47;;
43744;SDS011;29359;53.048;8.732;2022-10-22T00:18:02;7.05;;;4.00;;
43744;SDS011;29359;53.048;8.732;2022-10-22T00:20:04;11.13;;;3.70;;
43744;SDS011;29359;53.048;8.732;2022-10-22T00:22:06;20.40;;;4.13;;
43744;SDS011;29359;53.048;8.732;2022-10-22T00:24:08;13.25;;;3.70;;
43744;SDS011;29359;53.048;8.732;2022-10-22T00:26:10;10.68;;;4.35;;
43744;SDS011;29359;53.048;8.732;2022-10-22T00:28:12;4.30;;;3.72;;
43744;SDS011;29359;53.048;8.732;2022-10-22T00:30:15;17.17;;;4.70;;
43744;SDS011;29359;53.048;8.732;2022-10-22T00:32:16;4.68;;;4.38;;
43744;SDS011;29359;53.048;8.732;2022-10-22T00:34:21;26.90;;;4.95;;
43744;SDS011;29359;53.048;8.732;2022-10-22T00:36:23;11.00;;;5.05;;
43744;SDS011;29359;53.048;8.732;2022-10-22T00:38:24;11.80;;;5.05;;
43744;SDS011;29359;53.048;8.732;2022-10-22T00:40:26;21.65;;;4.68;;
43744;SDS011;29359;53.048;8.732;2022-10-22T00:42:28;10.40;;;5.35;;
43744;SDS011;29359;53.048;8.732;2022-10-22T00:46:59;23.13;;;5.53;;
43744;SDS011;29359;53.048;8.732;2022-10-22T00:49:01;10.80;;;5.40;;
43744;SDS011;29359;53.048;8.732;2022-10-22T00:51:05;10.93;;;4.75;;
43744;SDS011;29359;53.048;8.732;2022-10-22T00:53:09;24.67;;;4.90;;
43744;SDS011;29359;53.048;8.732;2022-10-22T00:55:17;34.90;;;5.05;;
43744;SDS011;29359;53.048;8.732;2022-10-22T00:57:20;42.78;;;5.10;;
43744;SDS011;29359;53.048;8.732;2022-10-22T00:59:22;18.52;;;5.18;;
43744;SDS011;29359;53.048;8.732;2022-10-22T01:01:28;14.80;;;7.03;;
43744;SDS011;29359;53.048;8.732;2022-10-22T01:03:31;23.52;;;5.30;;
43744;SDS011;29359;53.048;8.732;2022-10-22T01:05:38;20.92;;;6.07;;
43744;SDS011;29359;53.048;8.732;2022-10-22T01:07:48;45.17;;;5.10;;
43744;SDS011;29359;53.048;8.732;2022-10-22T01:12:34;39.47;;;5.50;;
43744;SDS011;29359;53.048;8.732;2022-10-22T01:14:47;45.60;;;5.38;;
43744;SDS011;29359;53.048;8.732;2022-10-22T02:52:52;12.10;;;7.18;;
43744;SDS011;29359;53.048;8.732;2022-10-22T02:54:53;7.15;;;5.88;;
43744;SDS011;29359;53.048;8.732;2022-10-22T02:56:54;9.23;;;6.47;;
43744;SDS011;29359;53.048;8.732;2022-10-22T02:58:55;13.15;;;7.88;;
43744;SDS011;29359;53.048;8.732;2022-10-22T03:00:57;8.02;;;7.05;;
43744;SDS011;29359;53.048;8.732;2022-10-22T03:02:58;8.57;;;6.88;;
43744;SDS011;29359;53.048;8.732;2022-10-22T03:05:00;8.00;;;7.20;;
43744;SDS011;29359;53.048;8.732;2022-10-22T03:07:01;7.95;;;7.25;;
43744;SDS011;29359;53.048;8.732;2022-10-22T03:09:03;9.38;;;6.75;;
43744;SDS011;29359;53.048;8.732;2022-10-22T03:11:04;7.55;;;6.50;;
43744;SDS011;29359;53.048;8.732;2022-10-22T03:13:06;6.82;;;6.22;;
43744;SDS011;29359;53.048;8.732;2022-10-22T03:15:07;7.10;;;6.40;;
43744;SDS011;29359;53.048;8.732;2022-10-22T03:17:09;7.63;;;5.80;;
43744;SDS011;29359;53.048;8.732;2022-10-22T03:19:10;8.27;;;6.15;;
43744;SDS011;29359;53.048;8.732;2022-10-22T03:21:14;7.20;;;6.43;;
43744;SDS011;29359;53.048;8.732;2022-10-22T03:23:28;9.43;;;6.70;;
43744;SDS011;29359;53.048;8.732;2022-10-22T03:25:31;9.68;;;7.05;;
43744;SDS011;29359;53.048;8.732;2022-10-22T03:27:35;12.38;;;6.47;;
43744;SDS011;29359;53.048;8.732;2022-10-22T03:29:38;7.40;;;6.70;;
43744;SDS011;29359;53.048;8.732;2022-10-22T03:31:41;6.60;;;6.00;;
43744;SDS011;29359;53.048;8.732;2022-10-22T03:33:43;10.77;;;6.53;;
43744;SDS011;29359;53.048;8.732;2022-10-22T03:35:44;6.80;;;6.22;;
43744;SDS011;29359;53.048;8.732;2022-10-22T03:37:47;11.13;;;6.32;;
43744;SDS011;29359;53.048;8.732;2022-10-22T03:39:49;6.82;;;6.22;;
43744;SDS011;29359;53.048;8.732;2022-10-22T03:41:52;6.20;;;5.70;;
43744;SDS011;29359;53.048;8.732;2022-10-22T03:43:53;9.48;;;6.30;;
43744;SDS011;29359;53.048;8.732;2022-10-22T03:45:55;9.20;;;6.10;;
43744;SDS011;29359;53.048;8.732;2022-10-22T03:47:57;8.75;;;5.63;;
43744;SDS011;29359;53.048;8.732;2022-10-22T03:49:58;7.10;;;6.50;;
43744;SDS011;29359;53.048;8.732;2022-10-22T03:52:06;10.68;;;6.55;;
43744;SDS011;29359;53.048;8.732;2022-10-22T03:54:12;12.65;;;5.90;;
43744;SDS011;29359;53.048;8.732;2022-10-22T03:56:15;6.35;;;5.75;;
43744;SDS011;29359;53.048;8.732;2022-10-22T03:58:16;10.40;;;5.68;;
43744;SDS011;29359;53.048;8.732;2022-10-22T04:00:18;7.35;;;5.22;;
43744;SDS011;29359;53.048;8.732;2022-10-22T04:02:19;6.65;;;5.10;;
43744;SDS011;29359;53.048;8.732;2022-10-22T04:04:21;5.93;;;5.43;;
43744;SDS011;29359;53.048;8.732;2022-10-22T04:06:23;6.70;;;4.97;;
43744;SDS011;29359;53.048;8.732;2022-10-22T04:08:25;8.68;;;5.38;;
43744;SDS011;29359;53.048;8.732;2022-10-22T04:10:26;6.43;;;5.82;;
43744;SDS011;29359;53.048;8.732;2022-10-22T04:12:28;6.97;;;6.22;;
43744;SDS011;29359;53.048;8.732;2022-10-22T04:14:29;7.70;;;6.03;;
43744;SDS011;29359;53.048;8.732;2022-10-22T04:16:31;11.05;;;6.90;;
43744;SDS011;29359;53.048;8.732;2022-10-22T04:18:32;7.72;;;6.90;;
43744;SDS011;29359;53.048;8.732;2022-10-22T04:20:34;10.48;;;7.88;;
43744;SDS011;29359;53.048;8.732;2022-10-22T04:22:35;7.60;;;6.90;;
43744;SDS011;29359;53.048;8.732;2022-10-22T04:24:37;8.38;;;7.57;;
43744;SDS011;29359;53.048;8.732;2022-10-22T04:26:39;12.32;;;6.82;;
43744;SDS011;29359;53.048;8.732;2022-10-22T04:28:40;14.55;;;7.60;;
43744;SDS011;29359;53.048;8.732;2022-10-22T04:30:42;12.38;;;6.70;;
43744;SDS011;29359;53.048;8.732;2022-10-22T04:32:43;8.90;;;7.05;;
43744;SDS011;29359;53.048;8.732;2022-10-22T04:34:45;9.23;;;7.20;;
43744;SDS011;29359;53.048;8.732;2022-10-22T04:36:46;7.85;;;7.13;;
43744;SDS011;29359;53.048;8.732;2022-10-22T04:38:51;8.80;;;7.28;;
43744;SDS011;29359;53.048;8.732;2022-10-22T04:40:54;8.43;;;7.63;;
43744;SDS011;29359;53.048;8.732;2022-10-22T04:42:56;18.50;;;9.48;;
43744;SDS011;29359;53.048;8.732;2022-10-22T04:44:57;17.23;;;8.93;;
43744;SDS011;29359;53.048;8.732;2022-10-22T04:46:59;10.15;;;8.13;;
43744;SDS011;29359;53.048;8.732;2022-10-22T04:49:00;10.32;;;8.57;;
43744;SDS011;29359;53.048;8.732;2022-10-22T04:51:04;9.07;;;8.20;;
43744;SDS011;29359;53.048;8.732;2022-10-22T04:53:06;9.07;;;8.15;;
43744;SDS011;29359;53.048;8.732;2022-10-22T04:55:08;8.77;;;7.75;;
43744;SDS011;29359;53.048;8.732;2022-10-22T04:57:09;7.53;;;6.75;;
43744;SDS011;29359;53.048;8.732;2022-10-22T04:59:11;13.48;;;7.68;;
43744;SDS011;29359;53.048;8.732;2022-10-22T05:01:17;17.55;;;7.97;;
43744;SDS011;29359;53.048;8.732;2022-10-22T05:03:24;9.15;;;8.07;;
43744;SDS011;29359;53.048;8.732;2022-10-22T05:05:25;9.68;;;7.88;;
43744;SDS011;29359;53.048;8.732;2022-10-22T05:07:27;10.35;;;7.70;;
43744;SDS011;29359;53.048;8.732;2022-10-22T05:09:28;12.50;;;7.55;;
43744;SDS011;29359;53.048;8.732;2022-10-22T05:11:34;8.43;;;7.55;;
43744;SDS011;29359;53.048;8.732;2022-10-22T05:13:37;8.45;;;7.43;;
43744;SDS011;29359;53.048;8.732;2022-10-22T05:15:38;11.43;;;7.80;;
43744;SDS011;29359;53.048;8.732;2022-10-22T05:17:40;9.65;;;7.25;;
43744;SDS011;29359;53.048;8.732;2022-10-22T05:19:42;15.82;;;7.70;;
43744;SDS011;29359;53.048;8.732;2022-10-22T05:21:43;16.83;;;7.40;;
43744;SDS011;29359;53.048;8.732;2022-10-22T05:23:46;12.73;;;7.13;;
43744;SDS011;29359;53.048;8.732;2022-10-22T05:25:49;8.43;;;7.32;;
43744;SDS011;29359;53.048;8.732;2022-10-22T05:27:50;7.85;;;6.40;;
43744;SDS011;29359;53.048;8.732;2022-10-22T05:29:52;7.72;;;6.63;;
43744;SDS011;29359;53.048;8.732;2022-10-22T05:31:53;10.70;;;6.57;;
43744;SDS011;29359;53.048;8.732;2022-10-22T05:33:54;7.43;;;6.40;;
43744;SDS011;29359;53.048;8.732;2022-10-22T05:35:56;7.97;;;7.28;;
43744;SDS011;29359;53.048;8.732;2022-10-22T05:37:58;7.50;;;6.45;;
43744;SDS011;29359;53.048;8.732;2022-10-22T05:39:59;6.22;;;5.70;;
43744;SDS011;29359;53.048;8.732;2022-10-22T05:42:20;9.55;;;7.70;;
43744;SDS011;29359;53.048;8.732;2022-10-22T05:44:22;8.32;;;7.40;;
43744;SDS011;29359;53.048;8.732;2022-10-22T05:46:24;10.02;;;6.53;;
43744;SDS011;29359;53.048;8.732;2022-10-22T05:48:28;7.13;;;6.40;;
43744;SDS011;29359;53.048;8.732;2022-10-22T05:50:29;9.98;;;7.03;;
43744;SDS011;29359;53.048;8.732;2022-10-22T05:52:31;9.63;;;6.55;;
43744;SDS011;29359;53.048;8.732;2022-10-22T05:54:33;11.52;;;7.40;;
43744;SDS011;29359;53.048;8.732;2022-10-22T05:56:34;7.80;;;7.15;;
43744;SDS011;29359;53.048;8.732;2022-10-22T05:58:37;9.13;;;6.40;;
43744;SDS011;29359;53.048;8.732;2022-10-22T06:00:38;7.88;;;7.18;;
43744;SDS011;29359;53.048;8.732;2022-10-22T06:02:40;9.10;;;7.00;;
43744;SDS011;29359;53.048;8.732;2022-10-22T06:04:42;9.32;;;8.38;;
43744;SDS011;29359;53.048;8.732;2022-10-22T06:08:53;13.77;;;7.53;;
43744;SDS011;29359;53.048;8.732;2022-10-22T06:10:55;10.35;;;7.85;;
43744;SDS011;29359;53.048;8.732;2022-10-22T06:12:57;11.18;;;7.90;;
43744;SDS011;29359;53.048;8.732;2022-10-22T06:15:01;10.40;;;7.72;;
43744;SDS011;29359;53.048;8.732;2022-10-22T06:17:03;11.77;;;8.10;;
43744;SDS011;29359;53.048;8.732;2022-10-22T06:19:04;9.27;;;8.00;;
43744;SDS011;29359;53.048;8.732;2022-10-22T06:21:06;11.65;;;8.32;;
43744;SDS011;29359;53.048;8.732;2022-10-22T06:23:08;15.18;;;8.73;;
43744;SDS011;29359;53.048;8.732;2022-10-22T06:25:10;9.85;;;8.80;;
43744;SDS011;29359;53.048;8.732;2022-10-22T06:27:12;10.98;;;8.45;;
43744;SDS011;29359;53.048;8.732;2022-10-22T06:29:13;13.18;;;8.48;;
43744;SDS011;29359;53.048;8.732;2022-10-22T06:31:15;13.40;;;9.75;;
43744;SDS011;29359;53.048;8.732;2022-10-22T06:33:16;12.52;;;9.18;;
43744;SDS011;29359;53.048;8.732;2022-10-22T06:35:18;20.45;;;8.70;;
43744;SDS011;29359;53.048;8.732;2022-10-22T06:37:19;15.52;;;8.93;;
43744;SDS011;29359;53.048;8.732;2022-10-22T06:39:21;10.10;;;8.10;;
43744;SDS011;29359;53.048;8.732;2022-10-22T06:41:22;13.00;;;8.18;;
43744;SDS011;29359;53.048;8.732;2022-10-22T06:43:29;11.02;;;8.68;;
43744;SDS011;29359;53.048;8.732;2022-10-22T06:45:31;8.98;;;8.07;;
43744;SDS011;29359;53.048;8.732;2022-10-22T06:47:33;9.68;;;7.68;;
43744;SDS011;29359;53.048;8.732;2022-10-22T06:49:34;14.75;;;8.27;;
43744;SDS011;29359;53.048;8.732;2022-10-22T06:51:35;9.50;;;7.88;;
43744;SDS011;29359;53.048;8.732;2022-10-22T06:53:38;10.20;;;7.90;;
43744;SDS011;29359;53.048;8.732;2022-10-22T06:55:40;12.80;;;8.07;;
43744;SDS011;29359;53.048;8.732;2022-10-22T06:57:41;13.73;;;8.00;;
43744;SDS011;29359;53.048;8.732;2022-10-22T06:59:44;10.40;;;8.10;;
43744;SDS011;29359;53.048;8.732;2022-10-22T07:01:46;9.48;;;8.55;;
43744;SDS011;29359;53.048;8.732;2022-10-22T07:03:48;12.95;;;9.20;;
43744;SDS011;29359;53.048;8.732;2022-10-22T07:05:51;9.38;;;8.38;;
43744;SDS011;29359;53.048;8.732;2022-10-22T07:07:53;9.93;;;8.50;;
43744;SDS011;29359;53.048;8.732;2022-10-22T07:09:54;15.70;;;9.68;;
43744;SDS011;29359;53.048;8.732;2022-10-22T07:11:55;11.55;;;10.20;;
43744;SDS011;29359;53.048;8.732;2022-10-22T07:13:58;16.42;;;11.30;;
43744;SDS011;29359;53.048;8.732;2022-10-22T07:16:00;14.55;;;11.98;;
43744;SDS011;29359;53.048;8.732;2022-10-22T07:18:02;15.10;;;12.90;;
43744;SDS011;29359;53.048;8.732;2022-10-22T07:20:04;22.95;;;13.68;;
43744;SDS011;29359;53.048;8.732;2022-10-22T07:22:06;20.58;;;14.40;;
43744;SDS011;29359;53.048;8.732;2022-10-22T07:24:08;20.45;;;14.75;;
43744;SDS011;29359;53.048;8.732;2022-10-22T07:26:11;28.65;;;15.48;;
43744;SDS011;29359;53.048;8.732;2022-10-22T07:28:14;22.10;;;16.23;;
43744;SDS011;29359;53.048;8.732;2022-10-22T07:30:16;22.45;;;15.23;;
43744;SDS011;29359;53.048;8.732;2022-10-22T07:32:17;24.70;;;16.52;;
43744;SDS011;29359;53.048;8.732;2022-10-22T07:34:23;26.90;;;16.30;;
43744;SDS011;29359;53.048;8.732;2022-10-22T07:36:25;20.70;;;15.18;;
43744;SDS011;29359;53.048;8.732;2022-10-22T07:38:27;22.05;;;15.68;;
43744;SDS011;29359;53.048;8.732;2022-10-22T07:40:29;20.55;;;14.93;;
43744;SDS011;29359;53.048;8.732;2022-10-22T07:42:30;21.17;;;16.10;;
43744;SDS011;29359;53.048;8.732;2022-10-22T07:44:32;25.83;;;14.90;;
43744;SDS011;29359;53.048;8.732;2022-10-22T07:46:34;20.48;;;12.95;;
43744;SDS011;29359;53.048;8.732;2022-10-22T07:48:35;17.58;;;12.85;;
43744;SDS011;29359;53.048;8.732;2022-10-22T07:50:37;15.02;;;12.30;;
43744;SDS011;29359;53.048;8.732;2022-10-22T07:52:38;17.65;;;12.10;;
43744;SDS011;29359;53.048;8.732;2022-10-22T07:54:40;20.90;;;12.57;;
43744;SDS011;29359;53.048;8.732;2022-10-22T07:56:41;18.98;;;12.38;;
43744;SDS011;29359;53.048;8.732;2022-10-22T07:58:43;15.20;;;10.85;;
43744;SDS011;29359;53.048;8.732;2022-10-22T08:00:45;20.35;;;10.80;;
43744;SDS011;29359;53.048;8.732;2022-10-22T08:02:47;16.23;;;10.50;;
43744;SDS011;29359;53.048;8.732;2022-10-22T08:04:48;14.75;;;10.50;;
43744;SDS011;29359;53.048;8.732;2022-10-22T08:06:50;15.48;;;10.48;;
43744;SDS011;29359;53.048;8.732;2022-10-22T08:08:51;14.65;;;10.43;;
43744;SDS011;29359;53.048;8.732;2022-10-22T08:10:54;19.98;;;10.95;;
43744;SDS011;29359;53.048;8.732;2022-10-22T08:12:57;18.83;;;10.32;;
43744;SDS011;29359;53.048;8.732;2022-10-22T08:14:59;18.65;;;10.23;;
43744;SDS011;29359;53.048;8.732;2022-10-22T08:17:01;14.35;;;10.30;;
43744;SDS011;29359;53.048;8.732;2022-10-22T08:19:02;15.65;;;10.32;;
43744;SDS011;29359;53.048;8.732;2022-10-22T08:21:03;16.85;;;10.15;;
43744;SDS011;29359;53.048;8.732;2022-10-22T08:23:05;17.80;;;10.73;;
43744;SDS011;29359;53.048;8.732;2022-10-22T08:25:06;13.50;;;9.63;;
43744;SDS011;29359;53.048;8.732;2022-10-22T08:27:09;15.02;;;9.45;;
43744;SDS011;29359;53.048;8.732;2022-10-22T08:29:10;16.73;;;9.38;;
43744;SDS011;29359;53.048;8.732;2022-10-22T08:31:11;9.45;;;8.13;;
43744;SDS011;29359;53.048;8.732;2022-10-22T08:33:13;11.55;;;7.88;;
43744;SDS011;29359;53.048;8.732;2022-10-22T08:35:15;12.48;;;7.85;;
43744;SDS011;29359;53.048;8.732;2022-10-22T08:37:17;14.45;;;8.15;;
43744;SDS011;29359;53.048;8.732;2022-10-22T08:39:19;11.25;;;7.78;;
43744;SDS011;29359;53.048;8.732;2022-10-22T08:41:21;14.73;;;7.65;;
43744;SDS011;29359;53.048;8.732;2022-10-22T08:43:46;11.25;;;7.10;;
43744;SDS011;29359;53.048;8.732;2022-10-22T08:50:41;10.85;;;6.80;;
43744;SDS011;29359;53.048;8.732;2022-10-22T08:52:46;10.35;;;6.93;;
43744;SDS011;29359;53.048;8.732;2022-10-22T08:54:53;11.85;;;6.70;;
43744;SDS011;29359;53.048;8.732;2022-10-22T09:01:37;11.23;;;6.13;;
43744;SDS011;29359;53.048;8.732;2022-10-22T09:03:53;13.85;;;5.55;;
43744;SDS011;29359;53.048;8.732;2022-10-22T09:06:02;10.90;;;6.10;;
43744;SDS011;29359;53.048;8.732;2022-10-22T09:08:10;12.00;;;5.07;;
43744;SDS011;29359;53.048;8.732;2022-10-22T09:10:13;11.13;;;5.55;;
43744;SDS011;29359;53.048;8.732;2022-10-22T09:12:15;7.68;;;4.78;;
43744;SDS011;29359;53.048;8.732;2022-10-22T09:14:21;11.60;;;5.22;;
43744;SDS011;29359;53.048;8.732;2022-10-22T09:16:36;8.98;;;4.70;;
43744;SDS011;29359;53.048;8.732;2022-10-22T09:20:57;11.13;;;5.30;;
43744;SDS011;29359;53.048;8.732;2022-10-22T09:23:23;5.57;;;4.05;;
43744;SDS011;29359;53.048;8.732;2022-10-22T09:25:46;7.68;;;4.90;;
43744;SDS011;29359;53.048;8.732;2022-10-22T09:27:51;8.00;;;5.05;;
43744;SDS011;29359;53.048;8.732;2022-10-22T09:29:59;8.15;;;4.40;;
43744;SDS011;29359;53.048;8.732;2022-10-22T09:32:01;13.85;;;4.53;;
43744;SDS011;29359;53.048;8.732;2022-10-22T09:34:03;8.60;;;4.03;;
43744;SDS011;29359;53.048;8.732;2022-10-22T09:36:07;6.13;;;4.13;;
43744;SDS011;29359;53.048;8.732;2022-10-22T09:38:16;4.70;;;4.00;;
43744;SDS011;29359;53.048;8.732;2022-10-22T09:40:21;8.85;;;4.35;;
43744;SDS011;29359;53.048;8.732;2022-10-22T09:42:23;10.35;;;3.90;;
43744;SDS011;29359;53.048;8.732;2022-10-22T09:44:25;9.48;;;3.25;;
43744;SDS011;29359;53.048;8.732;2022-10-22T09:46:27;11.50;;;3.65;;
43744;SDS011;29359;53.048;8.732;2022-10-22T09:48:34;8.98;;;3.63;;
43744;SDS011;29359;53.048;8.732;2022-10-22T09:50:43;13.52;;;3.55;;
43744;SDS011;29359;53.048;8.732;2022-10-22T09:53:00;7.93;;;3.78;;
43744;SDS011;29359;53.048;8.732;2022-10-22T09:55:12;9.32;;;3.47;;
43744;SDS011;29359;53.048;8.732;2022-10-22T09:57:17;6.72;;;3.00;;
43744;SDS011;29359;53.048;8.732;2022-10-22T09:59:26;18.63;;;3.85;;
43744;SDS011;29359;53.048;8.732;2022-10-22T10:03:33;7.15;;;2.97;;
43744;SDS011;29359;53.048;8.732;2022-10-22T10:05:35;8.60;;;3.45;;
43744;SDS011;29359;53.048;8.732;2022-10-22T10:07:38;11.68;;;4.20;;
43744;SDS011;29359;53.048;8.732;2022-10-22T10:09:40;12.02;;;3.95;;
43744;SDS011;29359;53.048;8.732;2022-10-22T10:11:42;11.05;;;3.50;;
43744;SDS011;29359;53.048;8.732;2022-10-22T10:14:23;7.30;;;3.30;;
43744;SDS011;29359;53.048;8.732;2022-10-22T10:16:35;8.75;;;3.60;;
43744;SDS011;29359;53.048;8.732;2022-10-22T10:27:42;11.07;;;4.13;;
43744;SDS011;29359;53.048;8.732;2022-10-22T10:29:51;8.98;;;4.25;;
43744;SDS011;29359;53.048;8.732;2022-10-22T10:34:45;6.55;;;3.70;;
43744;SDS011;29359;53.048;8.732;2022-10-22T10:37:03;9.23;;;3.97;;
43744;SDS011;29359;53.048;8.732;2022-10-22T10:39:11;11.80;;;4.13;;
43744;SDS011;29359;53.048;8.732;2022-10-22T10:43:42;13.93;;;3.88;;
43744;SDS011;29359;53.048;8.732;2022-10-22T10:48:53;15.88;;;3.90;;
43744;SDS011;29359;53.048;8.732;2022-10-22T10:51:02;7.35;;;3.22;;
43744;SDS011;29359;53.048;8.732;2022-10-22T11:00:46;9.57;;;3.50;;
43744;SDS011;29359;53.048;8.732;2022-10-22T11:07:33;9.50;;;2.20;;
43744;SDS011;29359;53.048;8.732;2022-10-22T11:09:40;12.05;;;2.50;;
43744;SDS011;29359;53.048;8.732;2022-10-22T11:11:47;8.88;;;2.05;;
43744;SDS011;29359;53.048;8.732;2022-10-22T11:16:22;12.27;;;2.40;;
43744;SDS011;29359;53.048;8.732;2022-10-22T11:18:41;7.28;;;2.28;;
43744;SDS011;29359;53.048;8.732;2022-10-22T11:20:49;7.60;;;2.28;;
43744;SDS011;29359;53.048;8.732;2022-10-22T11:25:24;10.48;;;2.22;;
43744;SDS011;29359;53.048;8.732;2022-10-22T11:27:32;14.95;;;2.90;;
43744;SDS011;29359;53.048;8.732;2022-10-22T11:29:42;8.50;;;2.45;;
43744;SDS011;29359;53.048;8.732;2022-10-22T11:31:50;7.30;;;1.70;;
43744;SDS011;29359;53.048;8.732;2022-10-22T11:36:31;9.20;;;2.10;;
43744;SDS011;29359;53.048;8.732;2022-10-22T11:38:35;10.90;;;2.00;;
43744;SDS011;29359;53.048;8.732;2022-10-22T11:40:42;4.95;;;2.00;;
43744;SDS011;29359;53.048;8.732;2022-10-22T11:47:08;10.32;;;2.10;;
43744;SDS011;29359;53.048;8.732;2022-10-22T11:49:21;10.68;;;2.33;;
43744;SDS011;29359;53.048;8.732;2022-10-22T11:51:31;7.40;;;2.10;;
43744;SDS011;29359;53.048;8.732;2022-10-22T11:53:34;8.25;;;2.60;;
43744;SDS011;29359;53.048;8.732;2022-10-22T11:55:41;8.90;;;2.45;;
43744;SDS011;29359;53.048;8.732;2022-10-22T11:57:51;9.52;;;2.65;;
43744;SDS011;29359;53.048;8.732;2022-10-22T11:59:59;8.32;;;2.38;;
43744;SDS011;29359;53.048;8.732;2022-10-22T12:02:01;8.20;;;2.38;;
43744;SDS011;29359;53.048;8.732;2022-10-22T12:06:25;10.15;;;1.88;;
43744;SDS011;29359;53.048;8.732;2022-10-22T12:08:28;10.82;;;2.13;;
43744;SDS011;29359;53.048;8.732;2022-10-22T12:10:34;9.68;;;1.90;;
43744;SDS011;29359;53.048;8.732;2022-10-22T12:12:56;8.43;;;1.85;;
43744;SDS011;29359;53.048;8.732;2022-10-22T12:15:24;4.82;;;1.92;;
43744;SDS011;29359;53.048;8.732;2022-10-22T12:17:27;5.90;;;1.85;;
43744;SDS011;29359;53.048;8.732;2022-10-22T12:19:31;9.77;;;1.90;;
43744;SDS011;29359;53.048;8.732;2022-10-22T12:21:39;11.50;;;2.17;;
43744;SDS011;29359;53.048;8.732;2022-10-22T12:23:42;8.93;;;2.20;;
43744;SDS011;29359;53.048;8.732;2022-10-22T12:25:45;12.43;;;2.55;;
43744;SDS011;29359;53.048;8.732;2022-10-22T12:27:49;11.38;;;1.88;;
43744;SDS011;29359;53.048;8.732;2022-10-22T12:29:54;9.27;;;1.80;;
43744;SDS011;29359;53.048;8.732;2022-10-22T12:32:00;7.88;;;2.10;;
43744;SDS011;29359;53.048;8.732;2022-10-22T12:34:03;7.88;;;1.95;;
43744;SDS011;29359;53.048;8.732;2022-10-22T12:36:05;7.13;;;1.63;;
43744;SDS011;29359;53.048;8.732;2022-10-22T12:38:12;10.88;;;2.03;;
43744;SDS011;29359;53.048;8.732;2022-10-22T12:40:19;8.20;;;1.73;;
43744;SDS011;29359;53.048;8.732;2022-10-22T12:42:20;8.40;;;2.20;;
43744;SDS011;29359;53.048;8.732;2022-10-22T12:44:23;5.70;;;1.95;;
43744;SDS011;29359;53.048;8.732;2022-10-22T12:46:25;10.45;;;1.75;;
43744;SDS011;29359;53.048;8.732;2022-10-22T12:48:29;9.88;;;2.00;;
43744;SDS011;29359;53.048;8.732;2022-10-22T12:50:38;7.00;;;1.73;;
43744;SDS011;29359;53.048;8.732;2022-10-22T12:52:42;11.68;;;1.90;;
43744;SDS011;29359;53.048;8.732;2022-10-22T12:54:45;4.82;;;1.77;;
43744;SDS011;29359;53.048;8.732;2022-10-22T12:56:49;7.50;;;1.83;;
43744;SDS011;29359;53.048;8.732;2022-10-22T12:59:53;7.47;;;1.85;;
43744;SDS011;29359;53.048;8.732;2022-10-22T13:01:28;7.57;;;2.03;;
43744;SDS011;29359;53.048;8.732;2022-10-22T13:03:39;7.90;;;1.70;;
43744;SDS011;29359;53.048;8.732;2022-10-22T13:05:46;8.20;;;1.73;;
43744;SDS011;29359;53.048;8.732;2022-10-22T13:07:49;5.38;;;1.90;;
43744;SDS011;29359;53.048;8.732;2022-10-22T13:09:57;5.32;;;2.03;;
43744;SDS011;29359;53.048;8.732;2022-10-22T13:12:03;9.80;;;2.08;;
43744;SDS011;29359;53.048;8.732;2022-10-22T13:14:17;5.43;;;1.77;;
43744;SDS011;29359;53.048;8.732;2022-10-22T13:16:25;13.60;;;2.60;;
43744;SDS011;29359;53.048;8.732;2022-10-22T13:18:31;7.45;;;1.85;;
43744;SDS011;29359;53.048;8.732;2022-10-22T13:20:33;8.98;;;2.45;;
43744;SDS011;29359;53.048;8.732;2022-10-22T13:22:38;10.38;;;2.47;;
43744;SDS011;29359;53.048;8.732;2022-10-22T13:24:48;8.55;;;2.28;;
43744;SDS011;29359;53.048;8.732;2022-10-22T13:26:51;8.93;;;1.88;;
43744;SDS011;29359;53.048;8.732;2022-10-22T13:28:55;12.57;;;2.63;;
43744;SDS011;29359;53.048;8.732;2022-10-22T13:30:59;7.82;;;2.03;;
43744;SDS011;29359;53.048;8.732;2022-10-22T13:33:16;10.60;;;2.38;;
43744;SDS011;29359;53.048;8.732;2022-10-22T13:35:23;7.72;;;2.22;;
43744;SDS011;29359;53.048;8.732;2022-10-22T13:37:28;7.55;;;2.13;;
43744;SDS011;29359;53.048;8.732;2022-10-22T13:39:32;14.00;;;2.03;;
43744;SDS011;29359;53.048;8.732;2022-10-22T13:41:38;4.70;;;1.70;;
43744;SDS011;29359;53.048;8.732;2022-10-22T13:43:45;6.57;;;1.98;;
43744;SDS011;29359;53.048;8.732;2022-10-22T13:45:47;11.50;;;2.67;;
43744;SDS011;29359;53.048;8.732;2022-10-22T13:47:52;9.65;;;2.30;;
43744;SDS011;29359;53.048;8.732;2022-10-22T13:49:55;9.18;;;2.10;;
43744;SDS011;29359;53.048;8.732;2022-10-22T13:52:00;6.50;;;1.95;;
43744;SDS011;29359;53.048;8.732;2022-10-22T13:54:01;9.95;;;2.35;;
43744;SDS011;29359;53.048;8.732;2022-10-22T13:56:09;9.73;;;1.83;;
43744;SDS011;29359;53.048;8.732;2022-10-22T13:58:16;12.65;;;1.90;;
43744;SDS011;29359;53.048;8.732;2022-10-22T14:00:25;7.55;;;1.55;;
43744;SDS011;29359;53.048;8.732;2022-10-22T14:02:26;8.43;;;1.75;;
43744;SDS011;29359;53.048;8.732;2022-10-22T14:04:28;3.00;;;1.50;;
43744;SDS011;29359;53.048;8.732;2022-10-22T14:06:30;7.00;;;1.80;;
43744;SDS011;29359;53.048;8.732;2022-10-22T14:08:33;2.97;;;1.40;;
43744;SDS011;29359;53.048;8.732;2022-10-22T14:10:35;4.63;;;1.67;;
43744;SDS011;29359;53.048;8.732;2022-10-22T14:12:36;10.32;;;1.38;;
43744;SDS011;29359;53.048;8.732;2022-10-22T14:14:38;3.80;;;1.20;;
43744;SDS011;29359;53.048;8.732;2022-10-22T14:16:39;9.93;;;1.90;;
43744;SDS011;29359;53.048;8.732;2022-10-22T14:18:41;6.50;;;1.60;;
43744;SDS011;29359;53.048;8.732;2022-10-22T14:20:42;7.82;;;1.70;;
43744;SDS011;29359;53.048;8.732;2022-10-22T14:22:45;6.57;;;1.85;;
43744;SDS011;29359;53.048;8.732;2022-10-22T14:24:47;3.72;;;1.85;;
43744;SDS011;29359;53.048;8.732;2022-10-22T14:26:49;5.53;;;1.40;;
43744;SDS011;29359;53.048;8.732;2022-10-22T14:28:51;5.28;;;1.70;;
43744;SDS011;29359;53.048;8.732;2022-10-22T14:31:12;3.58;;;2.00;;
43744;SDS011;29359;53.048;8.732;2022-10-22T14:33:18;7.35;;;2.00;;
43744;SDS011;29359;53.048;8.732;2022-10-22T14:35:27;8.82;;;1.90;;
43744;SDS011;29359;53.048;8.732;2022-10-22T14:37:28;8.60;;;1.60;;
43744;SDS011;29359;53.048;8.732;2022-10-22T14:39:30;3.53;;;1.75;;
43744;SDS011;29359;53.048;8.732;2022-10-22T14:41:32;7.93;;;2.00;;
43744;SDS011;29359;53.048;8.732;2022-10-22T14:43:33;11.07;;;1.67;;
43744;SDS011;29359;53.048;8.732;2022-10-22T14:45:35;7.68;;;1.77;;
43744;SDS011;29359;53.048;8.732;2022-10-22T14:47:36;5.20;;;1.83;;
43744;SDS011;29359;53.048;8.732;2022-10-22T14:49:38;9.25;;;1.70;;
43744;SDS011;29359;53.048;8.732;2022-10-22T14:51:40;6.32;;;1.48;;
43744;SDS011;29359;53.048;8.732;2022-10-22T14:53:42;6.47;;;1.30;;
43744;SDS011;29359;53.048;8.732;2022-10-22T14:55:44;7.43;;;1.55;;
43744;SDS011;29359;53.048;8.732;2022-10-22T14:57:47;8.82;;;1.60;;
43744;SDS011;29359;53.048;8.732;2022-10-22T14:59:49;6.13;;;1.80;;
43744;SDS011;29359;53.048;8.732;2022-10-22T15:01:55;8.48;;;1.90;;
43744;SDS011;29359;53.048;8.732;2022-10-22T15:03:56;5.88;;;1.80;;